sensor_id;sensor_type;location;lat;lon;timestamp;pressure;altitude;pressure_sealevel;temperature;humidity
6532;BME280;3299;42.004;24.868;2023-01-27T00:00:12;97452.53;;;2.72;100.00
6532;BME280;3299;42.004;24.868;2023-01-27T00:02:41;97416.69;;;2.42;100.00
6532;BME280;3299;42.004;24.868;2023-01-27T00:05:08;97429.53;;;2.56;100.00
6532;BME280;3299;42.004;24.868;2023-01-27T00:07:36;97468.78;;;2.86;100.00
6532;BME280;3299;42.004;24.868;2023-01-27T00:10:03;97433.50;;;2.77;100.00
6532;BME280;3299;42.004;24.868;2023-01-27T00:12:29;97415.38;;;2.66;100.00
6532;BME280;3299;42.004;24.868;2023-01-27T00:15:14;97434.31;;;2.78;100.00
6532;BME280;3299;42.004;24.868;2023-01-27T00:17:40;97405.81;;;2.70;100.00
6532;BME280;3299;42.004;24.868;2023-01-27T00:20:07;97452.97;;;2.95;100.00
6532;BME280;3299;42.004;24.868;2023-01-27T00:22:32;97407.22;;;2.60;100.00
6532;BME280;3299;42.004;24.868;2023-01-27T00:25:16;97392.28;;;2.52;100.00
6532;BME280;3299;42.004;24.868;2023-01-27T00:27:42;97391.63;;;2.64;100.00
6532;BME280;3299;42.004;24.868;2023-01-27T00:30:08;97435.16;;;2.78;100.00
6532;BME280;3299;42.004;24.868;2023-01-27T00:32:34;97439.16;;;2.67;100.00
6532;BME280;3299;42.004;24.868;2023-01-27T00:35:18;97449.16;;;2.87;100.00
6532;BME280;3299;42.004;24.868;2023-01-27T00:37:44;97392.22;;;2.69;100.00
6532;BME280;3299;42.004;24.868;2023-01-27T00:40:12;97428.59;;;3.05;100.00
6532;BME280;3299;42.004;24.868;2023-01-27T00:42:42;97455.44;;;3.12;100.00
6532;BME280;3299;42.004;24.868;2023-01-27T00:45:07;97404.91;;;2.86;100.00
6532;BME280;3299;42.004;24.868;2023-01-27T00:47:52;97463.09;;;3.12;100.00
6532;BME280;3299;42.004;24.868;2023-01-27T00:50:18;97394.47;;;2.91;100.00
6532;BME280;3299;42.004;24.868;2023-01-27T00:52:44;97386.69;;;2.92;100.00
6532;BME280;3299;42.004;24.868;2023-01-27T00:55:10;97400.13;;;2.96;100.00
6532;BME280;3299;42.004;24.868;2023-01-27T00:57:36;97392.47;;;3.11;100.00
6532;BME280;3299;42.004;24.868;2023-01-27T01:00:03;97380.09;;;3.19;100.00
6532;BME280;3299;42.004;24.868;2023-01-27T01:02:29;97317.16;;;2.87;100.00
6532;BME280;3299;42.004;24.868;2023-01-27T01:04:54;97295.28;;;2.83;100.00
6532;BME280;3299;42.004;24.868;2023-01-27T01:07:19;97263.09;;;2.65;100.00
6532;BME280;3299;42.004;24.868;2023-01-27T01:09:45;97330.59;;;2.75;100.00
6532;BME280;3299;42.004;24.868;2023-01-27T01:12:10;97351.47;;;2.68;100.00
6532;BME280;3299;42.004;24.868;2023-01-27T01:14:36;97374.19;;;2.72;100.00
6532;BME280;3299;42.004;24.868;2023-01-27T01:17:01;97408.44;;;2.99;100.00
6532;BME280;3299;42.004;24.868;2023-01-27T01:19:29;97343.31;;;2.61;100.00
6532;BME280;3299;42.004;24.868;2023-01-27T01:21:54;97312.59;;;2.32;100.00
6532;BME280;3299;42.004;24.868;2023-01-27T01:24:20;97434.31;;;2.93;100.00
6532;BME280;3299;42.004;24.868;2023-01-27T01:26:45;97426.91;;;2.73;100.00
6532;BME280;3299;42.004;24.868;2023-01-27T01:29:10;97405.38;;;2.46;100.00
6532;BME280;3299;42.004;24.868;2023-01-27T01:31:36;97437.13;;;2.73;100.00
6532;BME280;3299;42.004;24.868;2023-01-27T01:34:01;97376.50;;;2.46;100.00
6532;BME280;3299;42.004;24.868;2023-01-27T01:36:26;97414.22;;;2.87;100.00
6532;BME280;3299;42.004;24.868;2023-01-27T01:38:55;97404.75;;;2.89;100.00
6532;BME280;3299;42.004;24.868;2023-01-27T01:41:21;97353.44;;;2.63;100.00
6532;BME280;3299;42.004;24.868;2023-01-27T01:43:48;97402.53;;;2.99;100.00
6532;BME280;3299;42.004;24.868;2023-01-27T01:46:14;97376.47;;;2.92;100.00
6532;BME280;3299;42.004;24.868;2023-01-27T01:48:43;97395.69;;;3.15;100.00
6532;BME280;3299;42.004;24.868;2023-01-27T01:51:15;97301.41;;;2.65;100.00
6532;BME280;3299;42.004;24.868;2023-01-27T01:59:03;97385.50;;;3.29;100.00
6532;BME280;3299;42.004;24.868;2023-01-27T02:01:30;97348.69;;;3.02;100.00
6532;BME280;3299;42.004;24.868;2023-01-27T02:03:58;97333.97;;;2.91;100.00
6532;BME280;3299;42.004;24.868;2023-01-27T02:06:25;97380.16;;;3.18;100.00
6532;BME280;3299;42.004;24.868;2023-01-27T02:08:50;97369.63;;;3.08;100.00
6532;BME280;3299;42.004;24.868;2023-01-27T02:11:16;97317.38;;;2.69;100.00
6532;BME280;3299;42.004;24.868;2023-01-27T02:13:42;97374.25;;;3.02;100.00
6532;BME280;3299;42.004;24.868;2023-01-27T02:16:10;97373.84;;;2.94;100.00
6532;BME280;3299;42.004;24.868;2023-01-27T02:18:38;97363.97;;;2.88;100.00
6532;BME280;3299;42.004;24.868;2023-01-27T02:21:04;97256.03;;;2.24;100.00
6532;BME280;3299;42.004;24.868;2023-01-27T02:23:43;97347.25;;;2.82;100.00
6532;BME280;3299;42.004;24.868;2023-01-27T02:26:20;97329.19;;;2.85;100.00
6532;BME280;3299;42.004;24.868;2023-01-27T02:28:53;97275.66;;;2.39;100.00
6532;BME280;3299;42.004;24.868;2023-01-27T02:31:20;97273.56;;;2.45;100.00
6532;BME280;3299;42.004;24.868;2023-01-27T02:33:45;97333.41;;;2.86;100.00
6532;BME280;3299;42.004;24.868;2023-01-27T02:36:15;97268.44;;;2.61;100.00
6532;BME280;3299;42.004;24.868;2023-01-27T02:38:48;97262.88;;;2.54;100.00
6532;BME280;3299;42.004;24.868;2023-01-27T02:43:49;97267.97;;;2.54;100.00
6532;BME280;3299;42.004;24.868;2023-01-27T02:46:15;97330.69;;;2.89;100.00
6532;BME280;3299;42.004;24.868;2023-01-27T02:48:40;97314.06;;;2.82;100.00
6532;BME280;3299;42.004;24.868;2023-01-27T02:51:08;97228.47;;;2.30;100.00
6532;BME280;3299;42.004;24.868;2023-01-27T02:53:33;97313.38;;;2.79;100.00
6532;BME280;3299;42.004;24.868;2023-01-27T02:55:59;97327.56;;;2.84;100.00
6532;BME280;3299;42.004;24.868;2023-01-27T02:58:25;97320.81;;;2.83;100.00
6532;BME280;3299;42.004;24.868;2023-01-27T03:00:50;97289.03;;;2.73;100.00
6532;BME280;3299;42.004;24.868;2023-01-27T03:03:15;97243.59;;;2.49;100.00
6532;BME280;3299;42.004;24.868;2023-01-27T03:05:41;97285.22;;;2.80;100.00
6532;BME280;3299;42.004;24.868;2023-01-27T03:08:06;97243.22;;;2.70;100.00
6532;BME280;3299;42.004;24.868;2023-01-27T03:10:32;97258.34;;;2.89;100.00
6532;BME280;3299;42.004;24.868;2023-01-27T03:12:57;97235.09;;;2.64;100.00
6532;BME280;3299;42.004;24.868;2023-01-27T03:15:23;97291.28;;;2.93;100.00
6532;BME280;3299;42.004;24.868;2023-01-27T03:18:09;97303.84;;;2.82;100.00
6532;BME280;3299;42.004;24.868;2023-01-27T03:20:39;97316.22;;;2.59;100.00
6532;BME280;3299;42.004;24.868;2023-01-27T03:23:05;97307.97;;;2.69;100.00
6532;BME280;3299;42.004;24.868;2023-01-27T03:25:30;97279.72;;;2.72;100.00
6532;BME280;3299;42.004;24.868;2023-01-27T03:27:56;97268.97;;;2.52;100.00
6532;BME280;3299;42.004;24.868;2023-01-27T03:30:21;97245.41;;;2.47;100.00
6532;BME280;3299;42.004;24.868;2023-01-27T03:32:49;97294.06;;;2.75;100.00
6532;BME280;3299;42.004;24.868;2023-01-27T03:35:15;97321.59;;;2.99;100.00
6532;BME280;3299;42.004;24.868;2023-01-27T03:37:41;97304.00;;;2.79;100.00
6532;BME280;3299;42.004;24.868;2023-01-27T03:40:26;97319.16;;;2.82;100.00
6532;BME280;3299;42.004;24.868;2023-01-27T03:43:10;97267.88;;;2.40;100.00
6532;BME280;3299;42.004;24.868;2023-01-27T03:45:54;97271.44;;;2.53;100.00
6532;BME280;3299;42.004;24.868;2023-01-27T03:48:38;97238.53;;;2.18;100.00
6532;BME280;3299;42.004;24.868;2023-01-27T03:51:05;97279.59;;;2.44;100.00
6532;BME280;3299;42.004;24.868;2023-01-27T03:53:31;97323.63;;;2.63;100.00
6532;BME280;3299;42.004;24.868;2023-01-27T03:55:57;97318.34;;;2.66;100.00
6532;BME280;3299;42.004;24.868;2023-01-27T03:58:27;97310.75;;;2.80;100.00
6532;BME280;3299;42.004;24.868;2023-01-27T04:00:58;97223.00;;;2.52;100.00
6532;BME280;3299;42.004;24.868;2023-01-27T04:03:29;97240.00;;;2.67;100.00
6532;BME280;3299;42.004;24.868;2023-01-27T04:06:15;97290.50;;;2.77;100.00
6532;BME280;3299;42.004;24.868;2023-01-27T04:09:00;97183.69;;;2.25;100.00
6532;BME280;3299;42.004;24.868;2023-01-27T04:11:25;97223.63;;;2.41;100.00
6532;BME280;3299;42.004;24.868;2023-01-27T04:14:10;97280.28;;;2.77;100.00
6532;BME280;3299;42.004;24.868;2023-01-27T04:16:36;97248.28;;;2.56;100.00
6532;BME280;3299;42.004;24.868;2023-01-27T04:19:06;97209.56;;;2.03;100.00
6532;BME280;3299;42.004;24.868;2023-01-27T04:21:32;97242.25;;;2.12;100.00
6532;BME280;3299;42.004;24.868;2023-01-27T04:23:58;97266.97;;;2.26;100.00
6532;BME280;3299;42.004;24.868;2023-01-27T04:26:24;97235.91;;;2.19;100.00
6532;BME280;3299;42.004;24.868;2023-01-27T04:28:49;97261.56;;;2.47;100.00
6532;BME280;3299;42.004;24.868;2023-01-27T04:31:16;97258.66;;;2.53;100.00
6532;BME280;3299;42.004;24.868;2023-01-27T04:33:42;97222.50;;;2.45;100.00
6532;BME280;3299;42.004;24.868;2023-01-27T04:36:09;97188.78;;;2.25;100.00
6532;BME280;3299;42.004;24.868;2023-01-27T04:38:34;97263.81;;;2.67;100.00
6532;BME280;3299;42.004;24.868;2023-01-27T04:41:00;97217.28;;;2.33;100.00
6532;BME280;3299;42.004;24.868;2023-01-27T04:43:25;97276.63;;;2.81;100.00
6532;BME280;3299;42.004;24.868;2023-01-27T04:45:51;97207.84;;;2.49;100.00
6532;BME280;3299;42.004;24.868;2023-01-27T04:48:16;97214.88;;;2.45;100.00
6532;BME280;3299;42.004;24.868;2023-01-27T04:50:42;97206.41;;;2.45;100.00
6532;BME280;3299;42.004;24.868;2023-01-27T04:53:10;97259.56;;;2.68;100.00
6532;BME280;3299;42.004;24.868;2023-01-27T04:55:35;97247.22;;;2.60;100.00
6532;BME280;3299;42.004;24.868;2023-01-27T04:58:01;97266.47;;;2.66;100.00
6532;BME280;3299;42.004;24.868;2023-01-27T05:00:27;97240.69;;;2.55;100.00
6532;BME280;3299;42.004;24.868;2023-01-27T05:02:53;97273.44;;;2.78;100.00
6532;BME280;3299;42.004;24.868;2023-01-27T05:05:18;97232.00;;;2.43;100.00
6532;BME280;3299;42.004;24.868;2023-01-27T05:07:43;97178.94;;;2.19;100.00
6532;BME280;3299;42.004;24.868;2023-01-27T05:10:09;97216.78;;;2.26;100.00
6532;BME280;3299;42.004;24.868;2023-01-27T05:12:35;97228.47;;;2.30;100.00
6532;BME280;3299;42.004;24.868;2023-01-27T05:15:00;97192.09;;;2.11;100.00
6532;BME280;3299;42.004;24.868;2023-01-27T05:17:30;97285.22;;;2.80;100.00
6532;BME280;3299;42.004;24.868;2023-01-27T05:19:56;97249.91;;;2.57;100.00
6532;BME280;3299;42.004;24.868;2023-01-27T05:22:21;97237.16;;;2.57;100.00
6532;BME280;3299;42.004;24.868;2023-01-27T05:24:46;97232.81;;;2.59;100.00
6532;BME280;3299;42.004;24.868;2023-01-27T05:27:12;97293.81;;;2.93;100.00
6532;BME280;3299;42.004;24.868;2023-01-27T05:29:37;97297.56;;;2.88;100.00
6532;BME280;3299;42.004;24.868;2023-01-27T05:32:03;97243.78;;;2.30;100.00
6532;BME280;3299;42.004;24.868;2023-01-27T05:34:28;97246.66;;;2.40;100.00
6532;BME280;3299;42.004;24.868;2023-01-27T05:36:53;97307.03;;;2.70;100.00
6532;BME280;3299;42.004;24.868;2023-01-27T05:39:19;97306.31;;;2.68;100.00
6532;BME280;3299;42.004;24.868;2023-01-27T05:41:46;97276.13;;;2.45;100.00
6532;BME280;3299;42.004;24.868;2023-01-27T05:44:14;97258.50;;;2.41;100.00
6532;BME280;3299;42.004;24.868;2023-01-27T05:46:40;97311.59;;;2.81;100.00
6532;BME280;3299;42.004;24.868;2023-01-27T05:49:06;97282.63;;;2.66;100.00
6532;BME280;3299;42.004;24.868;2023-01-27T05:51:34;97311.25;;;2.87;100.00
6532;BME280;3299;42.004;24.868;2023-01-27T05:54:01;97311.63;;;2.95;100.00
6532;BME280;3299;42.004;24.868;2023-01-27T05:56:27;97309.38;;;3.04;100.00
6532;BME280;3299;42.004;24.868;2023-01-27T05:58:53;97313.69;;;3.04;100.00
6532;BME280;3299;42.004;24.868;2023-01-27T06:01:22;97301.84;;;2.87;100.00
6532;BME280;3299;42.004;24.868;2023-01-27T06:03:48;97310.56;;;2.99;100.00
6532;BME280;3299;42.004;24.868;2023-01-27T06:06:19;97311.22;;;3.02;100.00
6532;BME280;3299;42.004;24.868;2023-01-27T06:08:45;97274.19;;;2.64;100.00
6532;BME280;3299;42.004;24.868;2023-01-27T06:11:11;97290.16;;;2.83;100.00
6532;BME280;3299;42.004;24.868;2023-01-27T06:13:36;97300.03;;;2.89;100.00
6532;BME280;3299;42.004;24.868;2023-01-27T06:16:04;97306.19;;;3.01;100.00
6532;BME280;3299;42.004;24.868;2023-01-27T06:18:30;97254.28;;;2.55;100.00
6532;BME280;3299;42.004;24.868;2023-01-27T06:20:57;97312.25;;;2.84;100.00
6532;BME280;3299;42.004;24.868;2023-01-27T06:23:23;97324.41;;;2.95;100.00
6532;BME280;3299;42.004;24.868;2023-01-27T06:25:48;97322.78;;;2.78;100.00
6532;BME280;3299;42.004;24.868;2023-01-27T06:28:15;97265.97;;;2.44;100.00
6532;BME280;3299;42.004;24.868;2023-01-27T06:30:41;97303.03;;;2.66;100.00
6532;BME280;3299;42.004;24.868;2023-01-27T06:33:07;97322.13;;;2.75;100.00
6532;BME280;3299;42.004;24.868;2023-01-27T06:35:34;97329.50;;;2.95;100.00
6532;BME280;3299;42.004;24.868;2023-01-27T06:38:03;97296.19;;;2.82;100.00
6532;BME280;3299;42.004;24.868;2023-01-27T06:40:30;97309.56;;;3.01;100.00
6532;BME280;3299;42.004;24.868;2023-01-27T06:42:57;97301.81;;;3.03;100.00
6532;BME280;3299;42.004;24.868;2023-01-27T06:45:22;97240.59;;;2.72;100.00
6532;BME280;3299;42.004;24.868;2023-01-27T06:47:55;97292.94;;;2.94;100.00
6532;BME280;3299;42.004;24.868;2023-01-27T06:50:22;97256.69;;;2.88;100.00
6532;BME280;3299;42.004;24.868;2023-01-27T06:52:48;97256.91;;;2.99;100.00
6532;BME280;3299;42.004;24.868;2023-01-27T06:55:14;97292.66;;;3.28;100.00
6532;BME280;3299;42.004;24.868;2023-01-27T06:57:39;97247.56;;;3.13;100.00
6532;BME280;3299;42.004;24.868;2023-01-27T07:00:05;97244.72;;;3.18;100.00
6532;BME280;3299;42.004;24.868;2023-01-27T07:02:31;97303.94;;;3.54;100.00
6532;BME280;3299;42.004;24.868;2023-01-27T07:04:56;97236.09;;;2.91;100.00
6532;BME280;3299;42.004;24.868;2023-01-27T07:07:22;97252.03;;;3.10;100.00
6532;BME280;3299;42.004;24.868;2023-01-27T07:09:47;97321.75;;;3.55;100.00
6532;BME280;3299;42.004;24.868;2023-01-27T07:12:12;97265.56;;;3.26;100.00
6532;BME280;3299;42.004;24.868;2023-01-27T07:14:38;97259.50;;;3.13;100.00
6532;BME280;3299;42.004;24.868;2023-01-27T07:17:03;97266.91;;;3.17;100.00
6532;BME280;3299;42.004;24.868;2023-01-27T07:19:29;97305.94;;;3.49;100.00
6532;BME280;3299;42.004;24.868;2023-01-27T07:21:54;97294.34;;;3.43;100.00
6532;BME280;3299;42.004;24.868;2023-01-27T07:24:19;97331.09;;;3.70;100.00
6532;BME280;3299;42.004;24.868;2023-01-27T07:26:45;97324.22;;;3.57;100.00
6532;BME280;3299;42.004;24.868;2023-01-27T07:29:12;97321.47;;;3.46;100.00
6532;BME280;3299;42.004;24.868;2023-01-27T07:31:37;97296.16;;;3.41;100.00
6532;BME280;3299;42.004;24.868;2023-01-27T07:34:03;97333.38;;;3.75;100.00
6532;BME280;3299;42.004;24.868;2023-01-27T07:36:28;97312.84;;;3.76;100.00
6532;BME280;3299;42.004;24.868;2023-01-27T07:38:54;97315.13;;;3.81;100.00
6532;BME280;3299;42.004;24.868;2023-01-27T07:41:19;97299.84;;;3.79;100.00
6532;BME280;3299;42.004;24.868;2023-01-27T07:43:47;97306.59;;;3.80;100.00
6532;BME280;3299;42.004;24.868;2023-01-27T07:46:12;97250.88;;;3.43;100.00
6532;BME280;3299;42.004;24.868;2023-01-27T07:48:38;97311.19;;;3.89;100.00
6532;BME280;3299;42.004;24.868;2023-01-27T07:51:03;97314.31;;;3.94;100.00
6532;BME280;3299;42.004;24.868;2023-01-27T07:53:28;97275.19;;;3.78;100.00
6532;BME280;3299;42.004;24.868;2023-01-27T07:55:54;97298.03;;;3.95;100.00
6532;BME280;3299;42.004;24.868;2023-01-27T07:58:19;97258.50;;;3.73;100.00
6532;BME280;3299;42.004;24.868;2023-01-27T08:00:45;97305.34;;;4.01;100.00
6532;BME280;3299;42.004;24.868;2023-01-27T08:03:24;97299.50;;;3.99;100.00
6532;BME280;3299;42.004;24.868;2023-01-27T08:05:50;97249.06;;;3.73;100.00
6532;BME280;3299;42.004;24.868;2023-01-27T08:08:16;97299.84;;;4.07;100.00
6532;BME280;3299;42.004;24.868;2023-01-27T08:10:43;97293.25;;;4.03;100.00
6532;BME280;3299;42.004;24.868;2023-01-27T08:13:11;97230.25;;;3.74;100.00
6532;BME280;3299;42.004;24.868;2023-01-27T08:15:37;97263.47;;;4.02;100.00
6532;BME280;3299;42.004;24.868;2023-01-27T08:18:02;97256.63;;;4.03;100.00
6532;BME280;3299;42.004;24.868;2023-01-27T08:20:28;97260.75;;;4.05;100.00
6532;BME280;3299;42.004;24.868;2023-01-27T08:22:54;97235.69;;;3.96;100.00
6532;BME280;3299;42.004;24.868;2023-01-27T08:25:20;97284.47;;;4.35;100.00
6532;BME280;3299;42.004;24.868;2023-01-27T08:27:49;97280.97;;;4.36;100.00
6532;BME280;3299;42.004;24.868;2023-01-27T08:30:15;97285.16;;;4.51;100.00
6532;BME280;3299;42.004;24.868;2023-01-27T08:32:40;97252.09;;;4.34;100.00
6532;BME280;3299;42.004;24.868;2023-01-27T08:35:06;97274.91;;;4.51;100.00
6532;BME280;3299;42.004;24.868;2023-01-27T08:37:31;97208.34;;;4.11;100.00
6532;BME280;3299;42.004;24.868;2023-01-27T08:39:56;97266.09;;;4.55;100.00
6532;BME280;3299;42.004;24.868;2023-01-27T08:42:22;97272.69;;;4.59;100.00
6532;BME280;3299;42.004;24.868;2023-01-27T08:44:47;97221.94;;;4.25;100.00
6532;BME280;3299;42.004;24.868;2023-01-27T08:47:13;97263.13;;;4.49;100.00
6532;BME280;3299;42.004;24.868;2023-01-27T08:49:38;97227.69;;;4.29;100.00
6532;BME280;3299;42.004;24.868;2023-01-27T08:52:03;97219.75;;;4.33;100.00
6532;BME280;3299;42.004;24.868;2023-01-27T08:54:29;97243.97;;;4.54;100.00
6532;BME280;3299;42.004;24.868;2023-01-27T08:56:54;97251.34;;;4.59;100.00
6532;BME280;3299;42.004;24.868;2023-01-27T08:59:20;97289.44;;;4.77;100.00
6532;BME280;3299;42.004;24.868;2023-01-27T09:01:45;97282.41;;;4.81;100.00
6532;BME280;3299;42.004;24.868;2023-01-27T09:04:11;97281.59;;;4.80;100.00
6532;BME280;3299;42.004;24.868;2023-01-27T09:06:36;97228.81;;;4.51;100.00
6532;BME280;3299;42.004;24.868;2023-01-27T09:09:01;97271.53;;;4.77;100.00
6532;BME280;3299;42.004;24.868;2023-01-27T09:11:38;97282.63;;;4.90;100.00
6532;BME280;3299;42.004;24.868;2023-01-27T09:14:04;97281.53;;;4.94;100.00
6532;BME280;3299;42.004;24.868;2023-01-27T09:16:30;97227.22;;;4.63;100.00
6532;BME280;3299;42.004;24.868;2023-01-27T09:18:55;97211.00;;;4.62;100.00
6532;BME280;3299;42.004;24.868;2023-01-27T09:21:22;97262.25;;;5.01;100.00
6532;BME280;3299;42.004;24.868;2023-01-27T09:23:48;97203.38;;;4.75;100.00
6532;BME280;3299;42.004;24.868;2023-01-27T09:26:14;97240.81;;;5.02;100.00
6532;BME280;3299;42.004;24.868;2023-01-27T09:28:39;97228.94;;;5.01;100.00
6532;BME280;3299;42.004;24.868;2023-01-27T09:31:05;97236.34;;;5.18;100.00
6532;BME280;3299;42.004;24.868;2023-01-27T09:33:32;97181.66;;;4.93;100.00
6532;BME280;3299;42.004;24.868;2023-01-27T09:36:00;97227.84;;;5.30;100.00
6532;BME280;3299;42.004;24.868;2023-01-27T09:38:30;97232.97;;;5.30;100.00
6532;BME280;3299;42.004;24.868;2023-01-27T09:46:39;97239.22;;;5.39;100.00
6532;BME280;3299;42.004;24.868;2023-01-27T09:49:44;97243.44;;;5.40;100.00
6532;BME280;3299;42.004;24.868;2023-01-27T09:52:35;97248.69;;;5.38;100.00
6532;BME280;3299;42.004;24.868;2023-01-27T10:27:22;97141.91;;;5.25;100.00
6532;BME280;3299;42.004;24.868;2023-01-27T10:32:31;97199.44;;;5.58;100.00
6532;BME280;3299;42.004;24.868;2023-01-27T10:35:18;97198.72;;;5.56;100.00
6532;BME280;3299;42.004;24.868;2023-01-27T10:43:03;97182.91;;;5.62;100.00
6532;BME280;3299;42.004;24.868;2023-01-27T10:45:37;97136.25;;;5.45;100.00
6532;BME280;3299;42.004;24.868;2023-01-27T10:48:37;97152.63;;;5.67;100.00
6532;BME280;3299;42.004;24.868;2023-01-27T10:51:23;97172.81;;;5.84;100.00
6532;BME280;3299;42.004;24.868;2023-01-27T10:59:08;97160.44;;;6.14;100.00
6532;BME280;3299;42.004;24.868;2023-01-27T11:01:45;97112.38;;;5.80;100.00
6532;BME280;3299;42.004;24.868;2023-01-27T11:04:26;97158.06;;;6.11;100.00
6532;BME280;3299;42.004;24.868;2023-01-27T11:06:54;97145.34;;;6.10;100.00
6532;BME280;3299;42.004;24.868;2023-01-27T11:09:30;97160.75;;;6.33;100.00
6532;BME280;3299;42.004;24.868;2023-01-27T11:11:59;97155.69;;;6.44;100.00
6532;BME280;3299;42.004;24.868;2023-01-27T11:14:47;97093.53;;;6.16;100.00
6532;BME280;3299;42.004;24.868;2023-01-27T11:17:19;97155.50;;;6.58;100.00
6532;BME280;3299;42.004;24.868;2023-01-27T11:36:25;97101.63;;;5.99;100.00
6532;BME280;3299;42.004;24.868;2023-01-27T11:38:53;97150.94;;;6.27;100.00
6532;BME280;3299;42.004;24.868;2023-01-27T11:41:20;97138.97;;;6.15;100.00
6532;BME280;3299;42.004;24.868;2023-01-27T11:43:45;97143.66;;;6.21;100.00
6532;BME280;3299;42.004;24.868;2023-01-27T11:46:18;97134.97;;;6.11;100.00
6532;BME280;3299;42.004;24.868;2023-01-27T11:48:49;97121.84;;;6.03;100.00
6532;BME280;3299;42.004;24.868;2023-01-27T11:51:19;97087.69;;;5.90;100.00
6532;BME280;3299;42.004;24.868;2023-01-27T11:53:49;97089.53;;;6.01;100.00
6532;BME280;3299;42.004;24.868;2023-01-27T11:56:18;97132.41;;;6.35;100.00
6532;BME280;3299;42.004;24.868;2023-01-27T11:59:13;97137.31;;;6.38;100.00
6532;BME280;3299;42.004;24.868;2023-01-27T12:06:55;97095.47;;;6.25;100.00
6532;BME280;3299;42.004;24.868;2023-01-27T12:09:40;97070.13;;;6.20;100.00
6532;BME280;3299;42.004;24.868;2023-01-27T12:14:47;97077.53;;;6.36;100.00
6532;BME280;3299;42.004;24.868;2023-01-27T12:17:21;97026.31;;;6.11;100.00
6532;BME280;3299;42.004;24.868;2023-01-27T12:19:47;97091.03;;;6.61;100.00
6532;BME280;3299;42.004;24.868;2023-01-27T12:22:25;97113.75;;;6.78;100.00
6532;BME280;3299;42.004;24.868;2023-01-27T12:24:54;97094.31;;;6.63;100.00
6532;BME280;3299;42.004;24.868;2023-01-27T12:27:29;97106.22;;;6.64;100.00
6532;BME280;3299;42.004;24.868;2023-01-27T12:29:59;97059.22;;;6.40;100.00
6532;BME280;3299;42.004;24.868;2023-01-27T12:32:40;97121.03;;;6.61;100.00
6532;BME280;3299;42.004;24.868;2023-01-27T12:37:42;97090.72;;;6.42;100.00
6532;BME280;3299;42.004;24.868;2023-01-27T12:40:19;97058.09;;;6.21;100.00
6532;BME280;3299;42.004;24.868;2023-01-27T12:42:50;97112.03;;;6.55;100.00
6532;BME280;3299;42.004;24.868;2023-01-27T12:45:29;97100.25;;;6.53;100.00
6532;BME280;3299;42.004;24.868;2023-01-27T12:47:56;97109.25;;;6.58;100.00
6532;BME280;3299;42.004;24.868;2023-01-27T12:50:30;97057.69;;;6.38;100.00
6532;BME280;3299;42.004;24.868;2023-01-27T12:53:12;97107.19;;;6.74;100.00
6532;BME280;3299;42.004;24.868;2023-01-27T12:55:48;97077.25;;;6.62;100.00
6532;BME280;3299;42.004;24.868;2023-01-27T13:03:49;97099.50;;;6.85;100.00
6532;BME280;3299;42.004;24.868;2023-01-27T13:06:17;97057.84;;;6.58;100.00
6532;BME280;3299;42.004;24.868;2023-01-27T13:08:45;97012.25;;;6.27;100.00
6532;BME280;3299;42.004;24.868;2023-01-27T13:11:14;97090.34;;;6.70;100.00
6532;BME280;3299;42.004;24.868;2023-01-27T13:13:49;97083.81;;;6.77;100.00
6532;BME280;3299;42.004;24.868;2023-01-27T13:16:27;97052.38;;;6.52;100.00
6532;BME280;3299;42.004;24.868;2023-01-27T13:18:55;97051.63;;;6.50;100.00
6532;BME280;3299;42.004;24.868;2023-01-27T13:21:24;97108.16;;;6.84;100.00
6532;BME280;3299;42.004;24.868;2023-01-27T13:23:52;97045.22;;;6.44;100.00
6532;BME280;3299;42.004;24.868;2023-01-27T13:26:30;97070.47;;;6.61;100.00
6532;BME280;3299;42.004;24.868;2023-01-27T13:29:13;97102.63;;;6.78;100.00
6532;BME280;3299;42.004;24.868;2023-01-27T13:34:40;97098.19;;;6.80;100.00
6532;BME280;3299;42.004;24.868;2023-01-27T13:37:16;97087.31;;;6.76;100.00
6532;BME280;3299;42.004;24.868;2023-01-27T13:42:53;97103.22;;;6.81;100.00
6532;BME280;3299;42.004;24.868;2023-01-27T13:45:42;97113.16;;;6.86;100.00
6532;BME280;3299;42.004;24.868;2023-01-27T13:48:25;97116.03;;;6.70;100.00
6532;BME280;3299;42.004;24.868;2023-01-27T13:51:15;97118.84;;;6.67;100.00
6532;BME280;3299;42.004;24.868;2023-01-27T13:53:42;97069.22;;;6.32;100.00
6532;BME280;3299;42.004;24.868;2023-01-27T14:01:52;97121.72;;;6.52;100.00
6532;BME280;3299;42.004;24.868;2023-01-27T14:04:39;97075.69;;;6.14;100.00
6532;BME280;3299;42.004;24.868;2023-01-27T14:07:37;97113.97;;;6.41;100.00
6532;BME280;3299;42.004;24.868;2023-01-27T14:10:19;97041.09;;;6.07;100.00
6532;BME280;3299;42.004;24.868;2023-01-27T14:15:45;97128.59;;;6.51;100.00
6532;BME280;3299;42.004;24.868;2023-01-27T14:26:38;97136.53;;;6.48;100.00
6532;BME280;3299;42.004;24.868;2023-01-27T14:42:16;97140.47;;;5.94;100.00
6532;BME280;3299;42.004;24.868;2023-01-27T14:44:57;97045.59;;;5.33;100.00
6532;BME280;3299;42.004;24.868;2023-01-27T14:47:44;97141.63;;;5.78;100.00
6532;BME280;3299;42.004;24.868;2023-01-27T14:55:42;97131.34;;;5.42;100.00
6532;BME280;3299;42.004;24.868;2023-01-27T15:07:17;97130.38;;;5.55;100.00
6532;BME280;3299;42.004;24.868;2023-01-27T15:15:22;97133.91;;;5.90;100.00
6532;BME280;3299;42.004;24.868;2023-01-27T15:26:08;97135.50;;;5.80;100.00
6532;BME280;3299;42.004;24.868;2023-01-27T15:28:38;97096.63;;;5.61;100.00
6532;BME280;3299;42.004;24.868;2023-01-27T15:41:25;97098.19;;;5.39;100.00
6532;BME280;3299;42.004;24.868;2023-01-27T15:46:49;97142.47;;;5.66;100.00
6532;BME280;3299;42.004;24.868;2023-01-27T15:49:25;97132.44;;;5.50;100.00
6532;BME280;3299;42.004;24.868;2023-01-27T15:51:54;97135.44;;;5.44;100.00
6532;BME280;3299;42.004;24.868;2023-01-27T15:54:24;97132.56;;;5.49;100.00
6532;BME280;3299;42.004;24.868;2023-01-27T15:56:53;97100.56;;;5.29;100.00
6532;BME280;3299;42.004;24.868;2023-01-27T15:59:27;97139.03;;;5.42;100.00
6532;BME280;3299;42.004;24.868;2023-01-27T16:02:02;97138.91;;;5.43;100.00
6532;BME280;3299;42.004;24.868;2023-01-27T16:04:34;97095.63;;;5.26;100.00
6532;BME280;3299;42.004;24.868;2023-01-27T16:07:02;97151.38;;;5.60;100.00
6532;BME280;3299;42.004;24.868;2023-01-27T16:09:42;97091.75;;;5.21;100.00